createdAt,value
2019-02-02T00:01:05.821Z,39.53
2019-02-02T00:03:32.911Z,42.43
2019-02-02T00:06:00.004Z,42.77
2019-02-02T00:08:27.075Z,42.17
2019-02-02T00:10:54.460Z,44.53
2019-02-02T00:13:21.511Z,42.67
2019-02-02T00:15:48.577Z,46.03
2019-02-02T00:18:15.781Z,46.33
2019-02-02T00:20:42.872Z,43.57
2019-02-02T00:23:09.947Z,48.30
2019-02-02T00:25:37.031Z,40.13
2019-02-02T00:28:04.251Z,46.37
2019-02-02T00:30:31.341Z,41.03
2019-02-02T00:32:58.431Z,42.97
2019-02-02T00:35:25.504Z,38.50
2019-02-02T00:37:52.567Z,36.77
2019-02-02T00:40:19.839Z,37.20
2019-02-02T00:42:46.919Z,43.47
2019-02-02T00:45:14.355Z,39.20
2019-02-02T00:47:41.427Z,38.37
2019-02-02T00:50:08.682Z,46.63
2019-02-02T00:52:35.811Z,44.47
2019-02-02T00:55:03.667Z,48.13
2019-02-02T00:57:30.734Z,45.43
2019-02-02T00:59:59.039Z,44.57
2019-02-02T01:02:26.133Z,46.73
2019-02-02T01:04:53.218Z,47.63
2019-02-02T01:07:20.299Z,48.80
2019-02-02T01:09:47.403Z,45.60
2019-02-02T01:12:14.508Z,47.80
2019-02-02T01:14:41.849Z,51.20
2019-02-02T01:17:09.228Z,48.30
2019-02-02T01:19:55.055Z,57.27
2019-02-02T01:22:40.591Z,49.03
2019-02-02T01:25:26.540Z,47.90
2019-02-02T01:28:11.913Z,55.40
2019-02-02T01:30:57.183Z,60.30
2019-02-02T01:33:43.920Z,49.97
2019-02-02T01:36:29.323Z,52.23
2019-02-02T01:39:14.723Z,50.00
2019-02-02T01:42:00.079Z,49.23
2019-02-02T01:44:45.448Z,49.83
2019-02-02T01:47:30.796Z,51.70
2019-02-02T01:50:18.125Z,55.63
2019-02-02T01:53:03.996Z,48.93
2019-02-02T01:55:49.666Z,45.60
2019-02-02T01:58:35.172Z,47.97
2019-02-02T02:01:21.386Z,48.43
2019-02-02T02:04:06.844Z,53.77
2019-02-02T02:06:52.337Z,51.90
2019-02-02T02:09:37.778Z,52.60
2019-02-02T02:12:23.243Z,43.00
2019-02-02T02:15:09.935Z,45.67
2019-02-02T02:17:55.521Z,48.60
2019-02-02T02:20:40.795Z,47.20
2019-02-02T02:23:26.189Z,53.43
2019-02-02T02:26:11.635Z,47.33
2019-02-02T02:28:57.023Z,44.20
2019-02-02T02:31:42.551Z,48.67
2019-02-02T02:34:27.860Z,43.90
2019-02-02T02:37:13.183Z,47.27
2019-02-02T02:39:59.242Z,44.03
2019-02-02T02:42:44.558Z,43.87
2019-02-02T02:45:30.047Z,43.00
2019-02-02T02:48:15.371Z,48.03
2019-02-02T02:51:00.727Z,43.83
2019-02-02T02:53:45.942Z,44.67
2019-02-02T02:56:31.527Z,45.57
2019-02-02T02:59:16.923Z,45.97
2019-02-02T03:02:03.362Z,47.50
2019-02-02T03:04:48.979Z,54.93
2019-02-02T03:07:34.371Z,45.13
2019-02-02T03:10:20.799Z,43.60
2019-02-02T03:13:06.614Z,45.83
2019-02-02T03:15:51.966Z,42.53
2019-02-02T03:18:37.382Z,45.57
2019-02-02T03:21:22.675Z,44.40
2019-02-02T03:24:08.106Z,42.53
2019-02-02T03:26:53.590Z,43.00
2019-02-02T03:29:39.076Z,43.47
2019-02-02T03:32:24.449Z,44.80
2019-02-02T03:35:10.401Z,43.37
2019-02-02T03:37:56.128Z,49.63
2019-02-02T03:40:41.497Z,43.77
2019-02-02T03:43:26.903Z,44.17
2019-02-02T03:46:12.592Z,44.80
2019-02-02T03:48:57.836Z,41.73
2019-02-02T03:51:43.183Z,43.63
2019-02-02T03:54:28.635Z,43.90
2019-02-02T03:57:14.018Z,43.10
2019-02-02T03:59:59.638Z,44.00
2019-02-02T04:02:45.930Z,40.73
2019-02-02T04:05:31.550Z,43.73
2019-02-02T04:08:17.059Z,44.80
2019-02-02T04:11:02.336Z,39.00
2019-02-02T04:13:47.807Z,42.77
2019-02-02T04:16:33.176Z,44.93
2019-02-02T04:19:18.885Z,45.23
2019-02-02T04:22:04.306Z,42.37
2019-02-02T04:24:49.640Z,44.83
2019-02-02T04:27:35.060Z,49.13
2019-02-02T04:30:22.275Z,42.90
2019-02-02T04:33:08.055Z,44.47
2019-02-02T04:35:54.213Z,42.03
2019-02-02T04:38:39.524Z,40.27
2019-02-02T04:41:24.963Z,42.80
2019-02-02T04:44:10.296Z,39.80
2019-02-02T04:46:55.701Z,39.97
2019-02-02T04:49:41.124Z,39.53
2019-02-02T04:52:26.678Z,41.63
2019-02-02T04:55:14.275Z,44.83
2019-02-02T04:57:59.644Z,41.70
2019-02-02T05:00:44.991Z,41.50
2019-02-02T05:03:30.776Z,44.93
2019-02-02T05:06:16.028Z,44.53
2019-02-02T05:09:01.602Z,46.67
2019-02-02T05:11:46.890Z,45.73
2019-02-02T05:14:32.218Z,48.33
2019-02-02T05:17:17.781Z,46.67
2019-02-02T05:20:04.036Z,50.60
2019-02-02T05:22:49.908Z,47.23
2019-02-02T05:25:35.350Z,55.13
2019-02-02T05:28:20.604Z,45.60
2019-02-02T05:31:06.032Z,44.77
2019-02-02T05:33:53.671Z,53.53
2019-02-02T05:36:38.740Z,45.10
2019-02-02T05:39:24.122Z,50.00
2019-02-02T05:42:09.567Z,51.13
2019-02-02T05:44:54.948Z,51.87
2019-02-02T05:47:40.276Z,49.87
2019-02-02T05:50:25.580Z,48.47
2019-02-02T05:53:10.996Z,60.90
2019-02-02T05:55:56.397Z,58.53
2019-02-02T05:58:41.932Z,61.43
2019-02-02T06:01:29.950Z,62.97
2019-02-02T06:04:15.600Z,59.57
2019-02-02T06:07:01.069Z,64.50
2019-02-02T06:09:46.468Z,61.43
2019-02-02T06:12:32.013Z,67.97
2019-02-02T06:15:17.536Z,64.70
2019-02-02T06:18:03.796Z,63.03
2019-02-02T06:20:49.308Z,64.43
2019-02-02T06:23:34.679Z,65.40
2019-02-02T06:26:20.188Z,59.57
2019-02-02T06:29:05.515Z,69.10
2019-02-02T06:31:50.921Z,65.73
2019-02-02T06:34:36.271Z,67.70
2019-02-02T06:37:21.632Z,76.83
2019-02-02T06:40:08.087Z,73.80
2019-02-02T06:42:53.560Z,70.77
2019-02-02T06:45:38.814Z,80.80
2019-02-02T06:48:24.464Z,75.97
2019-02-02T06:51:10.328Z,78.97
2019-02-02T06:53:55.796Z,78.67
2019-02-02T06:56:41.209Z,69.10
2019-02-02T06:59:26.576Z,66.73
2019-02-02T07:02:11.949Z,79.27
2019-02-02T07:04:57.992Z,68.27
2019-02-02T07:07:43.460Z,87.70
2019-02-02T07:10:29.333Z,88.10
2019-02-02T07:13:14.505Z,91.63
2019-02-02T07:15:59.883Z,75.50
2019-02-02T07:18:45.120Z,90.43
2019-02-02T07:21:30.686Z,95.67
2019-02-02T07:24:16.044Z,105.87
2019-02-02T07:27:01.505Z,112.93
2019-02-02T07:29:46.876Z,120.97
2019-02-02T07:32:32.276Z,114.93
2019-02-02T07:35:18.137Z,102.17
2019-02-02T07:38:04.833Z,98.17
2019-02-02T07:40:50.597Z,109.17
2019-02-02T07:43:36.624Z,122.40
2019-02-02T07:46:21.947Z,117.93
2019-02-02T07:49:07.396Z,110.07
2019-02-02T07:51:52.764Z,115.17
2019-02-02T07:54:38.333Z,110.37
2019-02-02T07:57:23.497Z,127.77
2019-02-02T08:00:15.815Z,119.83
2019-02-02T08:03:00.767Z,98.00
2019-02-02T08:05:47.085Z,122.90
2019-02-02T08:08:32.451Z,112.87
2019-02-02T08:11:18.129Z,110.97
2019-02-02T08:14:03.603Z,95.27
2019-02-02T08:16:49.329Z,114.63
2019-02-02T08:19:34.758Z,106.90
2019-02-02T08:22:20.137Z,102.87
2019-02-02T08:25:06.083Z,87.43
2019-02-02T08:27:51.785Z,89.80
2019-02-02T08:30:37.529Z,92.43
2019-02-02T08:33:31.592Z,95.33
2019-02-02T08:36:23.732Z,113.70
2019-02-02T08:39:09.991Z,129.63
2019-02-02T08:41:55.301Z,111.20
2019-02-02T08:44:40.948Z,108.03
2019-02-02T08:47:27.636Z,106.97
2019-02-02T08:50:18.696Z,111.67
2019-02-02T08:53:04.161Z,113.93
2019-02-02T08:55:51.868Z,105.97
2019-02-02T08:58:36.991Z,109.93
2019-02-02T09:01:22.376Z,112.13
2019-02-02T09:04:07.880Z,126.43
2019-02-02T09:06:54.668Z,103.97
2019-02-02T09:09:40.017Z,106.30
2019-02-02T09:12:31.659Z,107.93
2019-02-02T09:15:20.238Z,109.83
2019-02-02T09:18:06.052Z,115.13
2019-02-02T09:20:51.315Z,108.87
2019-02-02T09:23:36.732Z,124.27
2019-02-02T09:26:22.039Z,106.70
2019-02-02T09:29:10.344Z,104.37
2019-02-02T09:31:54.932Z,95.97
2019-02-02T09:34:40.339Z,99.03
2019-02-02T09:37:25.751Z,105.00
2019-02-02T09:40:12.297Z,93.97
2019-02-02T09:42:57.979Z,95.90
2019-02-02T09:45:43.369Z,90.93
2019-02-02T09:48:31.118Z,86.47
2019-02-02T09:51:17.100Z,99.30
2019-02-02T09:54:02.433Z,115.67
2019-02-02T09:56:47.797Z,102.47
2019-02-02T09:59:33.169Z,113.80
2019-02-02T10:02:19.118Z,112.13
2019-02-02T10:05:04.811Z,121.93
2019-02-02T10:07:50.809Z,104.30
2019-02-02T10:10:36.181Z,117.27
2019-02-02T10:13:21.720Z,112.10
2019-02-02T10:16:06.742Z,116.23
2019-02-02T10:18:52.415Z,106.57
2019-02-02T10:21:37.819Z,111.03
2019-02-02T10:24:23.419Z,112.50
2019-02-02T10:27:08.731Z,115.70
2019-02-02T10:29:54.139Z,112.67
2019-02-02T10:32:39.555Z,108.80
2019-02-02T10:35:24.967Z,105.90
2019-02-02T10:38:10.403Z,103.17
2019-02-02T10:40:55.688Z,107.10
2019-02-02T10:43:41.107Z,111.27
2019-02-02T10:46:26.562Z,99.43
2019-02-02T10:49:11.853Z,93.03
2019-02-02T10:51:57.417Z,106.47
2019-02-02T10:54:42.732Z,113.07
2019-02-02T10:57:28.199Z,91.10
2019-02-02T11:00:22.089Z,91.17
2019-02-02T11:03:07.688Z,95.60
2019-02-02T11:05:53.112Z,100.93
2019-02-02T11:08:39.778Z,88.10
2019-02-02T11:11:25.210Z,105.50
2019-02-02T11:14:10.836Z,85.80
2019-02-02T11:16:56.778Z,94.07
2019-02-02T11:19:42.189Z,96.33
2019-02-02T11:22:29.288Z,96.47
2019-02-02T11:25:14.971Z,106.97
2019-02-02T11:28:00.406Z,94.23
2019-02-02T11:30:45.798Z,101.20
2019-02-02T11:33:31.130Z,107.93
2019-02-02T11:36:16.506Z,104.23
2019-02-02T11:39:02.016Z,99.20
2019-02-02T11:41:47.303Z,99.70
2019-02-02T11:44:32.738Z,101.70
2019-02-02T11:47:18.088Z,105.60
2019-02-02T11:50:04.261Z,99.77
2019-02-02T11:52:49.885Z,110.07
2019-02-02T11:55:35.240Z,95.00
2019-02-02T11:58:20.886Z,107.60
2019-02-02T12:01:06.221Z,102.77
2019-02-02T12:03:51.814Z,104.13
2019-02-02T12:06:37.262Z,101.23
2019-02-02T12:09:23.796Z,104.33
2019-02-02T12:15:07.364Z,105.03
2019-02-02T12:17:53.140Z,112.20
2019-02-02T12:20:38.872Z,112.93
2019-02-02T12:23:27.223Z,110.43
2019-02-02T12:26:12.768Z,110.43
2019-02-02T12:28:58.035Z,116.30
2019-02-02T12:31:43.447Z,124.63
2019-02-02T12:34:28.931Z,114.90
2019-02-02T12:37:14.323Z,122.77
2019-02-02T12:40:02.503Z,117.13
2019-02-02T12:42:48.323Z,129.00
2019-02-02T12:45:42.386Z,129.33
2019-02-02T12:48:32.319Z,128.60
2019-02-02T12:51:17.772Z,128.10
2019-02-02T12:54:03.567Z,131.30
2019-02-02T12:56:49.059Z,121.53
2019-02-02T12:59:38.186Z,123.63
2019-02-02T13:02:37.490Z,119.47
2019-02-02T13:05:15.236Z,129.20
2019-02-02T13:08:00.581Z,139.30
2019-02-02T13:10:47.245Z,130.00
2019-02-02T13:13:32.678Z,131.63
2019-02-02T13:16:19.887Z,131.97
2019-02-02T13:19:05.847Z,130.00
2019-02-02T13:21:57.693Z,132.03
2019-02-02T13:24:49.942Z,139.27
2019-02-02T13:27:36.425Z,134.03
2019-02-02T13:30:30.376Z,143.80
2019-02-02T13:33:15.740Z,158.40
2019-02-02T13:36:01.107Z,143.00
2019-02-02T13:38:46.448Z,153.83
2019-02-02T13:41:31.785Z,153.97
2019-02-02T13:44:17.597Z,152.20
2019-02-02T13:47:05.873Z,137.33
2019-02-02T13:49:51.647Z,158.97
2019-02-02T13:52:37.103Z,157.53
2019-02-02T13:55:22.558Z,157.03
2019-02-02T13:58:07.949Z,161.30
2019-02-02T14:00:53.329Z,160.67
2019-02-02T14:03:39.781Z,153.77
2019-02-02T14:06:25.597Z,166.60
2019-02-02T14:09:14.100Z,170.03
2019-02-02T14:12:01.035Z,172.03
2019-02-02T14:14:46.430Z,170.33
2019-02-02T14:17:32.025Z,168.83
2019-02-02T14:20:17.360Z,166.53
2019-02-02T14:23:03.505Z,176.53
2019-02-02T14:25:49.033Z,214.20
2019-02-02T14:28:34.645Z,192.17
2019-02-02T14:31:20.423Z,183.97
2019-02-02T14:34:05.907Z,171.67
2019-02-02T14:36:51.591Z,202.23
2019-02-02T14:39:36.942Z,196.80
2019-02-02T14:42:24.106Z,217.27
2019-02-02T14:45:13.580Z,229.37
2019-02-02T14:47:58.998Z,245.80
2019-02-02T14:50:45.154Z,249.27
2019-02-02T14:53:30.406Z,244.67
2019-02-02T14:56:15.809Z,230.40
2019-02-02T14:59:03.567Z,217.93
2019-02-02T15:01:48.611Z,252.17
2019-02-02T15:04:33.996Z,256.23
2019-02-02T15:07:20.246Z,263.33
2019-02-02T15:10:07.311Z,294.97
2019-02-02T15:12:53.146Z,287.53
2019-02-02T15:15:38.373Z,249.87
2019-02-02T15:18:24.010Z,268.10
2019-02-02T15:21:12.018Z,286.00
2019-02-02T15:23:57.610Z,280.43
2019-02-02T15:26:43.015Z,275.10
2019-02-02T15:29:28.488Z,292.10
2019-02-02T15:32:13.862Z,276.30
2019-02-02T15:34:59.533Z,266.83
2019-02-02T15:37:44.861Z,305.63
2019-02-02T15:40:31.703Z,283.60
2019-02-02T15:43:17.722Z,292.73
2019-02-02T15:46:03.243Z,334.90
2019-02-02T15:48:48.674Z,361.60
2019-02-02T15:51:40.258Z,328.73
2019-02-02T15:54:22.754Z,291.53
2019-02-02T15:57:08.712Z,261.90
2019-02-02T15:59:54.710Z,310.07
2019-02-02T16:02:40.098Z,322.40
2019-02-02T16:05:25.833Z,317.30
2019-02-02T16:08:13.213Z,310.43
2019-02-02T16:10:58.918Z,314.47
2019-02-02T16:13:46.468Z,338.30
2019-02-02T16:16:32.058Z,312.77
2019-02-02T16:19:17.608Z,333.10
2019-02-02T16:22:03.198Z,345.03
2019-02-02T16:24:48.733Z,319.70
2019-02-02T16:27:34.234Z,301.87
2019-02-02T16:30:21.864Z,353.40
2019-02-02T16:33:07.238Z,325.80
2019-02-02T16:35:52.694Z,354.87
2019-02-02T16:38:38.069Z,350.17
2019-02-02T16:41:23.561Z,351.60
2019-02-02T16:44:08.816Z,333.80
2019-02-02T16:46:54.241Z,350.93
2019-02-02T16:49:39.537Z,335.30
2019-02-02T16:52:24.895Z,331.90
2019-02-02T16:55:10.689Z,313.23
2019-02-02T16:57:56.341Z,313.80
2019-02-02T17:00:41.737Z,325.13
2019-02-02T17:03:27.306Z,320.67
2019-02-02T17:06:12.602Z,320.17
2019-02-02T17:08:58.088Z,334.50
2019-02-02T17:11:43.457Z,326.53
2019-02-02T17:14:30.156Z,262.00
2019-02-02T17:17:15.483Z,294.60
2019-02-02T17:20:01.197Z,282.60
2019-02-02T17:22:46.856Z,297.97
2019-02-02T17:25:32.311Z,290.67
2019-02-02T17:28:17.653Z,281.80
2019-02-02T17:31:03.068Z,280.17
2019-02-02T17:33:50.025Z,265.43
2019-02-02T17:36:35.417Z,302.83
2019-02-02T17:39:20.753Z,280.23
2019-02-02T17:42:06.229Z,285.03
2019-02-02T17:44:51.606Z,287.80
2019-02-02T17:47:36.957Z,299.87
2019-02-02T17:50:23.125Z,260.70
2019-02-02T17:53:08.970Z,275.50
2019-02-02T17:55:54.808Z,296.13
2019-02-02T17:58:40.269Z,291.93
2019-02-02T18:01:25.610Z,285.80
2019-02-02T18:04:11.049Z,286.83
2019-02-02T18:06:56.473Z,318.20
2019-02-02T18:09:41.913Z,290.07
2019-02-02T18:12:27.817Z,296.90
2019-02-02T18:15:15.287Z,273.17
2019-02-02T18:18:02.447Z,284.47
2019-02-02T18:20:48.093Z,295.37
2019-02-02T18:23:35.824Z,281.23
2019-02-02T18:26:21.549Z,316.57
2019-02-02T18:29:06.846Z,290.93
2019-02-02T18:31:52.266Z,304.63
2019-02-02T18:34:37.753Z,315.63
2019-02-02T18:37:23.169Z,311.23
2019-02-02T18:40:10.542Z,288.07
2019-02-02T18:42:56.073Z,331.77
2019-02-02T18:45:41.339Z,299.43
2019-02-02T18:48:26.820Z,293.70
2019-02-02T18:51:12.197Z,355.10
2019-02-02T18:53:57.756Z,295.63
2019-02-02T18:56:43.149Z,369.83
2019-02-02T18:59:29.410Z,344.57
2019-02-02T19:02:15.309Z,341.00
2019-02-02T19:05:03.922Z,346.67
2019-02-02T19:07:48.066Z,324.50
2019-02-02T19:10:35.254Z,332.73
2019-02-02T19:13:20.953Z,353.03
2019-02-02T19:16:07.645Z,364.30
2019-02-02T19:18:53.678Z,314.33
2019-02-02T19:21:39.252Z,304.53
2019-02-02T19:24:26.150Z,325.77
2019-02-02T19:27:11.474Z,329.07
2019-02-02T19:29:56.834Z,366.97
2019-02-02T19:32:42.386Z,344.17
2019-02-02T19:35:28.142Z,331.03
2019-02-02T19:38:14.779Z,382.97
2019-02-02T19:41:00.534Z,350.13
2019-02-02T19:43:45.914Z,345.93
2019-02-02T19:46:31.408Z,376.67
2019-02-02T19:49:17.302Z,394.03
2019-02-02T19:52:03.841Z,398.90
2019-02-02T19:54:49.946Z,399.53
2019-02-02T19:57:35.561Z,415.50
2019-02-02T20:00:24.287Z,364.03
2019-02-02T20:03:10.118Z,415.13
2019-02-02T20:05:58.093Z,410.87
2019-02-02T20:08:43.380Z,382.97
2019-02-02T20:11:32.280Z,415.00
2019-02-02T20:14:18.347Z,390.00
2019-02-02T20:17:05.136Z,430.30
2019-02-02T20:19:50.646Z,429.73
2019-02-02T20:22:37.923Z,412.87
2019-02-02T20:25:23.671Z,432.23
2019-02-02T20:28:09.361Z,442.33
2019-02-02T20:30:54.713Z,418.20
2019-02-02T20:33:40.203Z,426.83
2019-02-02T20:36:26.771Z,410.37
2019-02-02T20:39:12.778Z,408.63
2019-02-02T20:41:59.982Z,432.73
2019-02-02T20:44:45.734Z,403.03
2019-02-02T20:47:32.678Z,411.83
2019-02-02T20:50:18.362Z,395.93
2019-02-02T20:53:04.058Z,381.63
2019-02-02T20:55:50.027Z,384.30
2019-02-02T20:58:35.406Z,386.67
2019-02-02T21:01:20.919Z,369.20
2019-02-02T21:04:06.355Z,368.80
2019-02-02T21:06:51.810Z,391.73
2019-02-02T21:09:37.262Z,348.77
2019-02-02T21:12:22.674Z,383.53
2019-02-02T21:15:09.743Z,381.27
2019-02-02T21:17:55.886Z,350.73
2019-02-02T21:20:41.202Z,353.27
2019-02-02T21:23:26.628Z,388.53
2019-02-02T21:26:11.980Z,386.30
2019-02-02T21:28:57.479Z,383.17
2019-02-02T21:31:43.163Z,359.80
2019-02-02T21:34:29.178Z,378.40
2019-02-02T21:37:14.557Z,371.53
2019-02-02T21:39:59.955Z,372.47
2019-02-02T21:42:45.398Z,362.80
2019-02-02T21:45:30.994Z,378.60
2019-02-02T21:48:17.583Z,359.43
2019-02-02T21:51:03.895Z,366.40
2019-02-02T21:53:49.914Z,376.97
2019-02-02T21:56:35.291Z,378.30
2019-02-02T21:59:20.732Z,378.20
2019-02-02T22:02:06.111Z,354.93
2019-02-02T22:04:51.388Z,364.40
2019-02-02T22:07:36.763Z,385.60
2019-02-02T22:10:25.187Z,350.23
2019-02-02T22:13:11.095Z,349.67
2019-02-02T22:15:57.647Z,359.40
2019-02-02T22:18:44.333Z,324.87
2019-02-02T22:21:30.342Z,336.93
2019-02-02T22:24:17.316Z,329.37
2019-02-02T22:27:02.704Z,332.77
2019-02-02T22:29:48.137Z,348.03
2019-02-02T22:32:34.071Z,349.23
2019-02-02T22:35:19.894Z,384.23
2019-02-02T22:38:05.245Z,351.57
2019-02-02T22:40:50.589Z,344.57
2019-02-02T22:43:36.663Z,349.30
2019-02-02T22:46:21.979Z,337.63
2019-02-02T22:49:07.392Z,332.57
2019-02-02T22:51:53.550Z,337.00
2019-02-02T22:54:39.320Z,327.77
2019-02-02T22:57:24.797Z,345.80
2019-02-02T23:00:27.040Z,321.00
2019-02-02T23:03:14.806Z,362.63
2019-02-02T23:06:40.101Z,372.20
2019-02-02T23:09:58.444Z,358.90
2019-02-02T23:13:40.506Z,340.50
2019-02-02T23:16:27.503Z,367.47
2019-02-02T23:19:13.494Z,362.90
2019-02-02T23:22:01.157Z,364.53
2019-02-02T23:24:48.025Z,369.73
2019-02-02T23:27:33.549Z,333.50
2019-02-02T23:30:19.333Z,339.57
2019-02-02T23:33:04.867Z,395.03
2019-02-02T23:35:50.290Z,360.00
2019-02-02T23:38:35.618Z,346.77
2019-02-02T23:41:20.904Z,340.47
2019-02-02T23:44:06.318Z,345.43
2019-02-02T23:46:51.863Z,339.10
2019-02-02T23:49:37.241Z,387.90
2019-02-02T23:52:22.609Z,347.27
2019-02-02T23:55:07.961Z,352.97
2019-02-02T23:57:54.561Z,412.67
